sensor_id;sensor_type;location;lat;lon;timestamp;pressure;altitude;pressure_sealevel;temperature;humidity
32761;BME280;19126;47.472;7.850;2022-10-26T00:00:27;96629.56;;;12.88;23.28
32761;BME280;19126;47.472;7.850;2022-10-26T00:02:55;96630.56;;;12.87;24.47
32761;BME280;19126;47.472;7.850;2022-10-26T00:05:24;96634.22;;;12.86;24.61
32761;BME280;19126;47.472;7.850;2022-10-26T00:07:51;96640.84;;;12.82;25.73
32761;BME280;19126;47.472;7.850;2022-10-26T00:10:18;96627.81;;;12.73;27.36
32761;BME280;19126;47.472;7.850;2022-10-26T00:12:48;96637.91;;;12.70;28.12
32761;BME280;19126;47.472;7.850;2022-10-26T00:15:17;96643.81;;;12.72;27.81
32761;BME280;19126;47.472;7.850;2022-10-26T00:17:45;96644.25;;;12.75;29.63
32761;BME280;19126;47.472;7.850;2022-10-26T00:20:12;96648.47;;;12.70;30.96
32761;BME280;19126;47.472;7.850;2022-10-26T00:22:41;96644.75;;;12.64;31.92
32761;BME280;19126;47.472;7.850;2022-10-26T00:25:09;96652.00;;;12.62;33.38
32761;BME280;19126;47.472;7.850;2022-10-26T00:27:36;96637.69;;;12.50;34.93
32761;BME280;19126;47.472;7.850;2022-10-26T00:30:05;96641.69;;;12.45;35.31
32761;BME280;19126;47.472;7.850;2022-10-26T00:32:33;96650.59;;;12.44;35.71
32761;BME280;19126;47.472;7.850;2022-10-26T00:35:00;96645.28;;;12.38;37.06
32761;BME280;19126;47.472;7.850;2022-10-26T00:37:28;96646.81;;;12.32;36.54
32761;BME280;19126;47.472;7.850;2022-10-26T00:39:56;96644.06;;;12.40;35.76
32761;BME280;19126;47.472;7.850;2022-10-26T00:42:23;96649.72;;;12.37;36.69
32761;BME280;19126;47.472;7.850;2022-10-26T00:45:04;96659.44;;;12.37;36.54
32761;BME280;19126;47.472;7.850;2022-10-26T00:47:38;96663.53;;;12.39;36.25
32761;BME280;19126;47.472;7.850;2022-10-26T00:50:11;96661.34;;;12.43;35.45
32761;BME280;19126;47.472;7.850;2022-10-26T00:52:41;96660.09;;;12.39;36.17
32761;BME280;19126;47.472;7.850;2022-10-26T00:55:10;96655.13;;;12.51;36.01
32761;BME280;19126;47.472;7.850;2022-10-26T00:57:38;96652.06;;;12.47;35.59
32761;BME280;19126;47.472;7.850;2022-10-26T01:00:08;96660.78;;;12.48;35.23
32761;BME280;19126;47.472;7.850;2022-10-26T01:02:35;96671.50;;;12.46;35.44
32761;BME280;19126;47.472;7.850;2022-10-26T01:05:05;96678.59;;;12.45;33.90
32761;BME280;19126;47.472;7.850;2022-10-26T01:07:33;96675.94;;;12.45;33.31
32761;BME280;19126;47.472;7.850;2022-10-26T01:10:01;96696.28;;;12.52;33.10
32761;BME280;19126;47.472;7.850;2022-10-26T01:12:29;96732.81;;;12.55;33.38
32761;BME280;19126;47.472;7.850;2022-10-26T01:14:57;96758.53;;;12.53;33.11
32761;BME280;19126;47.472;7.850;2022-10-26T01:17:46;96817.97;;;12.55;29.39
32761;BME280;19126;47.472;7.850;2022-10-26T01:21:01;96797.41;;;12.51;27.49
32761;BME280;19126;47.472;7.850;2022-10-26T01:23:36;96808.31;;;12.48;25.72
32761;BME280;19126;47.472;7.850;2022-10-26T01:26:50;96797.34;;;12.44;23.75
32761;BME280;19126;47.472;7.850;2022-10-26T01:32:47;96789.53;;;12.36;19.10
32761;BME280;19126;47.472;7.850;2022-10-26T01:35:22;96781.78;;;12.34;18.32
32761;BME280;19126;47.472;7.850;2022-10-26T01:37:57;96756.81;;;12.30;17.55
32761;BME280;19126;47.472;7.850;2022-10-26T01:40:31;96740.00;;;12.31;16.41
32761;BME280;19126;47.472;7.850;2022-10-26T01:43:07;96694.06;;;12.34;15.43
32761;BME280;19126;47.472;7.850;2022-10-26T01:45:37;96723.84;;;12.34;14.41
32761;BME280;19126;47.472;7.850;2022-10-26T01:48:08;96741.91;;;12.37;14.07
32761;BME280;19126;47.472;7.850;2022-10-26T01:50:40;96770.53;;;12.40;14.24
32761;BME280;19126;47.472;7.850;2022-10-26T01:53:12;96750.81;;;12.36;13.07
32761;BME280;19126;47.472;7.850;2022-10-26T01:55:46;96755.66;;;12.33;13.38
32761;BME280;19126;47.472;7.850;2022-10-26T02:02:23;96764.44;;;12.25;12.32
32761;BME280;19126;47.472;7.850;2022-10-26T02:05:33;96785.88;;;12.22;12.38
32761;BME280;19126;47.472;7.850;2022-10-26T02:08:25;96797.25;;;12.22;11.86
32761;BME280;19126;47.472;7.850;2022-10-26T02:11:00;96806.16;;;12.21;11.64
32761;BME280;19126;47.472;7.850;2022-10-26T02:13:39;96802.03;;;12.19;11.02
32761;BME280;19126;47.472;7.850;2022-10-26T02:16:18;96811.94;;;12.16;11.37
32761;BME280;19126;47.472;7.850;2022-10-26T02:18:53;96799.13;;;12.13;11.44
32761;BME280;19126;47.472;7.850;2022-10-26T02:21:32;96790.78;;;12.10;10.95
32761;BME280;19126;47.472;7.850;2022-10-26T02:24:03;96790.94;;;12.08;11.15
32761;BME280;19126;47.472;7.850;2022-10-26T02:26:34;96800.19;;;12.04;10.95
32761;BME280;19126;47.472;7.850;2022-10-26T02:29:06;96804.03;;;12.01;11.17
32761;BME280;19126;47.472;7.850;2022-10-26T02:31:36;96801.19;;;12.03;11.37
32761;BME280;19126;47.472;7.850;2022-10-26T02:34:08;96802.19;;;12.02;10.58
32761;BME280;19126;47.472;7.850;2022-10-26T02:36:42;96807.47;;;12.02;10.90
32761;BME280;19126;47.472;7.850;2022-10-26T02:39:12;96803.19;;;12.01;10.68
32761;BME280;19126;47.472;7.850;2022-10-26T02:41:42;96797.13;;;12.00;10.90
32761;BME280;19126;47.472;7.850;2022-10-26T02:44:15;96797.25;;;11.99;10.38
32761;BME280;19126;47.472;7.850;2022-10-26T02:46:44;96792.00;;;11.99;11.16
32761;BME280;19126;47.472;7.850;2022-10-26T02:49:12;96775.06;;;12.01;10.21
32761;BME280;19126;47.472;7.850;2022-10-26T02:51:46;96754.81;;;12.02;10.23
32761;BME280;19126;47.472;7.850;2022-10-26T02:54:23;96758.59;;;11.99;10.92
32761;BME280;19126;47.472;7.850;2022-10-26T02:56:58;96769.28;;;11.98;10.35
32761;BME280;19126;47.472;7.850;2022-10-26T02:59:29;96786.91;;;11.97;10.65
32761;BME280;19126;47.472;7.850;2022-10-26T03:01:59;96782.00;;;11.94;10.50
32761;BME280;19126;47.472;7.850;2022-10-26T03:04:28;96786.78;;;11.91;10.57
32761;BME280;19126;47.472;7.850;2022-10-26T03:06:57;96776.28;;;11.91;10.88
32761;BME280;19126;47.472;7.850;2022-10-26T03:09:25;96771.66;;;11.93;10.73
32761;BME280;19126;47.472;7.850;2022-10-26T03:11:52;96771.66;;;11.93;10.63
32761;BME280;19126;47.472;7.850;2022-10-26T03:14:20;96765.91;;;11.89;10.24
32761;BME280;19126;47.472;7.850;2022-10-26T03:16:47;96779.91;;;11.90;10.17
32761;BME280;19126;47.472;7.850;2022-10-26T03:19:14;96772.47;;;11.93;10.59
32761;BME280;19126;47.472;7.850;2022-10-26T03:21:42;96772.63;;;11.92;10.13
32761;BME280;19126;47.472;7.850;2022-10-26T03:24:10;96774.44;;;11.91;10.39
32761;BME280;19126;47.472;7.850;2022-10-26T03:26:37;96780.53;;;11.92;9.99
32761;BME280;19126;47.472;7.850;2022-10-26T03:29:05;96792.88;;;11.91;10.23
32761;BME280;19126;47.472;7.850;2022-10-26T03:31:33;96784.81;;;11.93;10.22
32761;BME280;19126;47.472;7.850;2022-10-26T03:34:01;96791.34;;;11.97;10.25
32761;BME280;19126;47.472;7.850;2022-10-26T03:36:28;96794.94;;;12.04;10.62
32761;BME280;19126;47.472;7.850;2022-10-26T03:38:55;96797.69;;;12.11;10.40
32761;BME280;19126;47.472;7.850;2022-10-26T03:41:24;96798.75;;;12.16;10.52
32761;BME280;19126;47.472;7.850;2022-10-26T03:43:51;96794.25;;;12.25;11.26
32761;BME280;19126;47.472;7.850;2022-10-26T03:46:19;96789.25;;;12.30;11.16
32761;BME280;19126;47.472;7.850;2022-10-26T03:48:46;96779.88;;;12.28;12.01
32761;BME280;19126;47.472;7.850;2022-10-26T03:51:13;96778.25;;;12.27;13.33
32761;BME280;19126;47.472;7.850;2022-10-26T03:53:40;96782.25;;;12.23;14.43
32761;BME280;19126;47.472;7.850;2022-10-26T03:56:07;96790.50;;;12.20;14.85
32761;BME280;19126;47.472;7.850;2022-10-26T03:58:36;96786.22;;;12.19;15.63
32761;BME280;19126;47.472;7.850;2022-10-26T04:01:03;96798.41;;;12.20;16.49
32761;BME280;19126;47.472;7.850;2022-10-26T04:03:30;96806.94;;;12.22;16.92
32761;BME280;19126;47.472;7.850;2022-10-26T04:06:00;96813.41;;;12.19;17.17
32761;BME280;19126;47.472;7.850;2022-10-26T04:08:27;96812.75;;;12.17;18.20
32761;BME280;19126;47.472;7.850;2022-10-26T04:10:54;96818.75;;;12.26;18.88
32761;BME280;19126;47.472;7.850;2022-10-26T04:13:21;96823.13;;;12.34;21.61
32761;BME280;19126;47.472;7.850;2022-10-26T04:15:50;96820.59;;;12.40;24.70
32761;BME280;19126;47.472;7.850;2022-10-26T04:18:17;96815.88;;;12.36;27.34
32761;BME280;19126;47.472;7.850;2022-10-26T04:20:44;96810.78;;;12.34;27.71
32761;BME280;19126;47.472;7.850;2022-10-26T04:23:14;96811.31;;;12.29;28.46
32761;BME280;19126;47.472;7.850;2022-10-26T04:25:42;96805.22;;;12.29;29.59
32761;BME280;19126;47.472;7.850;2022-10-26T04:28:12;96791.63;;;12.25;29.50
32761;BME280;19126;47.472;7.850;2022-10-26T04:30:40;96790.78;;;12.25;29.29
32761;BME280;19126;47.472;7.850;2022-10-26T04:33:08;96781.88;;;12.26;29.44
32761;BME280;19126;47.472;7.850;2022-10-26T04:35:35;96779.25;;;12.26;29.02
32761;BME280;19126;47.472;7.850;2022-10-26T04:38:04;96773.97;;;12.26;29.33
32761;BME280;19126;47.472;7.850;2022-10-26T04:40:33;96785.78;;;12.30;28.75
32761;BME280;19126;47.472;7.850;2022-10-26T04:43:00;96792.88;;;12.29;29.65
32761;BME280;19126;47.472;7.850;2022-10-26T04:45:28;96805.88;;;12.31;28.96
32761;BME280;19126;47.472;7.850;2022-10-26T04:48:00;96811.50;;;12.28;29.69
32761;BME280;19126;47.472;7.850;2022-10-26T04:50:28;96807.22;;;12.27;29.24
32761;BME280;19126;47.472;7.850;2022-10-26T04:52:56;96797.03;;;12.24;27.60
32761;BME280;19126;47.472;7.850;2022-10-26T04:55:23;96785.78;;;12.30;27.19
32761;BME280;19126;47.472;7.850;2022-10-26T04:57:51;96784.06;;;12.37;28.80
32761;BME280;19126;47.472;7.850;2022-10-26T05:00:18;96780.06;;;12.41;30.66
32761;BME280;19126;47.472;7.850;2022-10-26T05:02:45;96783.34;;;12.43;33.51
32761;BME280;19126;47.472;7.850;2022-10-26T05:05:13;96784.44;;;12.49;37.08
32761;BME280;19126;47.472;7.850;2022-10-26T05:07:41;96778.19;;;12.50;40.75
32761;BME280;19126;47.472;7.850;2022-10-26T05:10:09;96780.81;;;12.50;42.98
32761;BME280;19126;47.472;7.850;2022-10-26T05:12:36;96787.44;;;12.46;44.85
32761;BME280;19126;47.472;7.850;2022-10-26T05:15:05;96786.44;;;12.47;45.11
32761;BME280;19126;47.472;7.850;2022-10-26T05:17:33;96783.97;;;12.45;45.82
32761;BME280;19126;47.472;7.850;2022-10-26T05:20:00;96796.06;;;12.40;43.43
32761;BME280;19126;47.472;7.850;2022-10-26T05:22:30;96805.59;;;12.41;42.02
32761;BME280;19126;47.472;7.850;2022-10-26T05:25:01;96805.13;;;12.37;39.59
32761;BME280;19126;47.472;7.850;2022-10-26T05:27:28;96815.03;;;12.35;36.50
32761;BME280;19126;47.472;7.850;2022-10-26T05:29:55;96804.50;;;12.35;33.00
32761;BME280;19126;47.472;7.850;2022-10-26T05:32:22;96799.44;;;12.34;31.10
32761;BME280;19126;47.472;7.850;2022-10-26T05:34:50;96821.50;;;12.33;29.62
32761;BME280;19126;47.472;7.850;2022-10-26T05:37:17;96815.41;;;12.32;26.75
32761;BME280;19126;47.472;7.850;2022-10-26T05:39:44;96802.44;;;12.30;23.79
32761;BME280;19126;47.472;7.850;2022-10-26T05:42:12;96822.88;;;12.28;22.35
32761;BME280;19126;47.472;7.850;2022-10-26T05:44:40;96815.13;;;12.27;20.12
32761;BME280;19126;47.472;7.850;2022-10-26T05:47:07;96812.84;;;12.24;18.47
32761;BME280;19126;47.472;7.850;2022-10-26T05:49:34;96805.78;;;12.24;16.62
32761;BME280;19126;47.472;7.850;2022-10-26T05:52:01;96806.78;;;12.23;15.88
32761;BME280;19126;47.472;7.850;2022-10-26T05:54:28;96819.31;;;12.21;14.79
32761;BME280;19126;47.472;7.850;2022-10-26T05:56:56;96822.94;;;12.20;13.68
32761;BME280;19126;47.472;7.850;2022-10-26T05:59:26;96826.09;;;12.15;13.66
32761;BME280;19126;47.472;7.850;2022-10-26T06:02:03;96820.81;;;12.15;12.45
32761;BME280;19126;47.472;7.850;2022-10-26T06:04:37;96826.09;;;12.15;12.39
32761;BME280;19126;47.472;7.850;2022-10-26T06:07:11;96829.56;;;12.16;11.79
32761;BME280;19126;47.472;7.850;2022-10-26T06:09:40;96825.94;;;12.17;11.57
32761;BME280;19126;47.472;7.850;2022-10-26T06:12:10;96833.19;;;12.15;11.94
32761;BME280;19126;47.472;7.850;2022-10-26T06:14:40;96832.56;;;12.13;11.62
32761;BME280;19126;47.472;7.850;2022-10-26T06:17:25;96836.19;;;12.12;11.39
32761;BME280;19126;47.472;7.850;2022-10-26T06:20:22;96838.19;;;12.10;10.63
32761;BME280;19126;47.472;7.850;2022-10-26T06:23:08;96837.81;;;12.13;11.40
32761;BME280;19126;47.472;7.850;2022-10-26T06:25:47;96848.53;;;12.11;10.64
32761;BME280;19126;47.472;7.850;2022-10-26T06:28:30;96851.00;;;12.13;11.04
32761;BME280;19126;47.472;7.850;2022-10-26T06:31:03;96852.78;;;12.12;11.21
32761;BME280;19126;47.472;7.850;2022-10-26T06:33:30;96855.41;;;12.12;11.11
32761;BME280;19126;47.472;7.850;2022-10-26T06:36:12;96856.41;;;12.11;10.88
32761;BME280;19126;47.472;7.850;2022-10-26T06:38:41;96863.81;;;12.16;10.92
32761;BME280;19126;47.472;7.850;2022-10-26T06:41:11;96866.59;;;12.14;10.86
32761;BME280;19126;47.472;7.850;2022-10-26T06:43:42;96867.22;;;12.16;10.80
32761;BME280;19126;47.472;7.850;2022-10-26T06:46:21;96877.78;;;12.16;10.55
32761;BME280;19126;47.472;7.850;2022-10-26T06:48:57;96880.41;;;12.16;10.23
32761;BME280;19126;47.472;7.850;2022-10-26T06:51:27;96882.03;;;12.18;10.18
32761;BME280;19126;47.472;7.850;2022-10-26T06:54:02;96890.94;;;12.16;10.20
32761;BME280;19126;47.472;7.850;2022-10-26T06:56:32;96889.94;;;12.18;10.61
32761;BME280;19126;47.472;7.850;2022-10-26T06:59:07;96893.56;;;12.16;10.55
32761;BME280;19126;47.472;7.850;2022-10-26T07:01:36;96899.19;;;12.13;10.75
32761;BME280;19126;47.472;7.850;2022-10-26T07:04:03;96896.56;;;12.13;10.27
32761;BME280;19126;47.472;7.850;2022-10-26T07:06:31;96904.28;;;12.15;10.15
32761;BME280;19126;47.472;7.850;2022-10-26T07:08:58;96907.56;;;12.17;10.36
32761;BME280;19126;47.472;7.850;2022-10-26T07:11:25;96918.56;;;12.21;10.88
32761;BME280;19126;47.472;7.850;2022-10-26T07:13:52;96914.94;;;12.22;10.17
32761;BME280;19126;47.472;7.850;2022-10-26T07:16:19;96910.84;;;12.19;10.87
32761;BME280;19126;47.472;7.850;2022-10-26T07:18:49;96906.75;;;12.16;10.70
32761;BME280;19126;47.472;7.850;2022-10-26T07:21:16;96923.38;;;12.17;10.72
32761;BME280;19126;47.472;7.850;2022-10-26T07:23:43;96925.00;;;12.18;10.70
32761;BME280;19126;47.472;7.850;2022-10-26T07:26:11;96923.81;;;12.21;10.40
32761;BME280;19126;47.472;7.850;2022-10-26T07:28:38;96935.00;;;12.23;11.11
32761;BME280;19126;47.472;7.850;2022-10-26T07:31:05;96937.47;;;12.24;10.75
32761;BME280;19126;47.472;7.850;2022-10-26T07:33:32;96931.84;;;12.27;10.41
32761;BME280;19126;47.472;7.850;2022-10-26T07:36:01;96938.63;;;12.45;10.67
32761;BME280;19126;47.472;7.850;2022-10-26T07:38:28;96939.75;;;12.66;10.61
32761;BME280;19126;47.472;7.850;2022-10-26T07:40:55;96949.03;;;12.77;11.43
32761;BME280;19126;47.472;7.850;2022-10-26T07:43:23;96954.78;;;12.80;11.08
32761;BME280;19126;47.472;7.850;2022-10-26T07:45:50;96956.84;;;12.85;10.58
32761;BME280;19126;47.472;7.850;2022-10-26T07:48:17;96958.16;;;13.04;11.29
32761;BME280;19126;47.472;7.850;2022-10-26T07:50:45;96961.69;;;13.41;11.89
32761;BME280;19126;47.472;7.850;2022-10-26T07:53:13;96974.69;;;13.73;10.83
32761;BME280;19126;47.472;7.850;2022-10-26T07:55:41;96973.03;;;14.09;10.76
32761;BME280;19126;47.472;7.850;2022-10-26T07:58:08;96981.47;;;14.41;10.48
32761;BME280;19126;47.472;7.850;2022-10-26T08:00:35;96978.75;;;14.56;10.70
32761;BME280;19126;47.472;7.850;2022-10-26T08:03:02;96971.53;;;14.64;10.50
32761;BME280;19126;47.472;7.850;2022-10-26T08:05:29;96970.91;;;14.62;11.08
32761;BME280;19126;47.472;7.850;2022-10-26T08:07:58;96974.78;;;14.67;13.79
32761;BME280;19126;47.472;7.850;2022-10-26T08:10:27;96984.38;;;14.96;16.65
32761;BME280;19126;47.472;7.850;2022-10-26T08:12:54;96977.66;;;14.93;25.90
32761;BME280;19126;47.472;7.850;2022-10-26T08:15:21;96978.53;;;15.07;29.15
32761;BME280;19126;47.472;7.850;2022-10-26T08:17:48;96979.22;;;15.16;33.53
32761;BME280;19126;47.472;7.850;2022-10-26T08:20:16;96982.81;;;15.08;40.11
32761;BME280;19126;47.472;7.850;2022-10-26T08:22:43;96985.06;;;15.05;44.60
32761;BME280;19126;47.472;7.850;2022-10-26T08:25:10;96989.28;;;14.99;48.11
32761;BME280;19126;47.472;7.850;2022-10-26T08:27:39;96980.47;;;14.92;48.29
32761;BME280;19126;47.472;7.850;2022-10-26T08:30:07;96988.00;;;14.88;53.41
32761;BME280;19126;47.472;7.850;2022-10-26T08:32:34;96993.81;;;15.05;53.75
32761;BME280;19126;47.472;7.850;2022-10-26T08:35:01;96996.94;;;15.58;49.17
32761;BME280;19126;47.472;7.850;2022-10-26T08:37:29;97003.47;;;16.04;51.02
32761;BME280;19126;47.472;7.850;2022-10-26T08:39:56;96998.25;;;16.51;61.05
32761;BME280;19126;47.472;7.850;2022-10-26T08:42:28;96992.53;;;16.81;77.97
32761;BME280;19126;47.472;7.850;2022-10-26T08:45:02;96994.78;;;17.11;91.03
32761;BME280;19126;47.472;7.850;2022-10-26T08:47:35;96991.31;;;17.17;100.00
32761;BME280;19126;47.472;7.850;2022-10-26T08:50:08;96997.84;;;17.28;100.00
32761;BME280;19126;47.472;7.850;2022-10-26T08:52:40;96999.06;;;17.32;100.00
32761;BME280;19126;47.472;7.850;2022-10-26T08:55:15;97002.47;;;17.53;100.00
32761;BME280;19126;47.472;7.850;2022-10-26T08:57:45;97009.31;;;17.81;100.00
32761;BME280;19126;47.472;7.850;2022-10-26T09:00:19;97006.63;;;17.87;100.00
32761;BME280;19126;47.472;7.850;2022-10-26T09:02:49;97008.19;;;18.09;100.00
32761;BME280;19126;47.472;7.850;2022-10-26T09:05:21;97006.13;;;18.50;100.00
32761;BME280;19126;47.472;7.850;2022-10-26T09:07:54;97009.16;;;18.53;100.00
32761;BME280;19126;47.472;7.850;2022-10-26T09:10:37;97006.91;;;18.50;100.00
32761;BME280;19126;47.472;7.850;2022-10-26T09:13:15;97008.31;;;18.85;100.00
32761;BME280;19126;47.472;7.850;2022-10-26T09:16:00;97006.09;;;19.07;100.00
32761;BME280;19126;47.472;7.850;2022-10-26T09:18:42;97007.59;;;19.22;100.00
32761;BME280;19126;47.472;7.850;2022-10-26T09:21:27;97009.31;;;19.53;100.00
32761;BME280;19126;47.472;7.850;2022-10-26T09:24:05;97017.53;;;19.89;100.00
32761;BME280;19126;47.472;7.850;2022-10-26T09:26:37;97024.16;;;20.17;100.00
32761;BME280;19126;47.472;7.850;2022-10-26T09:29:12;97015.97;;;20.30;100.00
32761;BME280;19126;47.472;7.850;2022-10-26T09:31:43;97022.00;;;20.68;100.00
32761;BME280;19126;47.472;7.850;2022-10-26T09:34:21;97031.84;;;20.56;100.00
32761;BME280;19126;47.472;7.850;2022-10-26T09:36:53;97027.97;;;20.40;100.00
32761;BME280;19126;47.472;7.850;2022-10-26T09:39:29;97024.25;;;20.41;100.00
32761;BME280;19126;47.472;7.850;2022-10-26T09:42:09;97027.28;;;20.44;100.00
32761;BME280;19126;47.472;7.850;2022-10-26T09:44:42;97025.84;;;20.72;100.00
32761;BME280;19126;47.472;7.850;2022-10-26T09:47:28;97023.91;;;20.91;100.00
32761;BME280;19126;47.472;7.850;2022-10-26T09:50:04;97025.94;;;21.32;100.00
32761;BME280;19126;47.472;7.850;2022-10-26T09:52:33;97027.78;;;21.43;100.00
32761;BME280;19126;47.472;7.850;2022-10-26T09:55:00;97027.06;;;21.48;100.00
32761;BME280;19126;47.472;7.850;2022-10-26T09:57:27;97033.59;;;21.28;100.00
32761;BME280;19126;47.472;7.850;2022-10-26T09:59:55;97028.69;;;21.61;100.00
32761;BME280;19126;47.472;7.850;2022-10-26T10:02:39;97027.31;;;21.70;100.00
32761;BME280;19126;47.472;7.850;2022-10-26T10:05:27;97037.47;;;21.97;92.31
32761;BME280;19126;47.472;7.850;2022-10-26T10:08:16;97030.81;;;22.29;84.42
32761;BME280;19126;47.472;7.850;2022-10-26T10:10:58;97028.88;;;22.24;81.28
32761;BME280;19126;47.472;7.850;2022-10-26T10:13:26;97031.75;;;22.05;81.77
32761;BME280;19126;47.472;7.850;2022-10-26T10:16:03;97044.34;;;22.22;83.94
32761;BME280;19126;47.472;7.850;2022-10-26T10:18:33;97041.03;;;22.03;81.32
32761;BME280;19126;47.472;7.850;2022-10-26T10:21:01;97036.56;;;22.20;86.41
32761;BME280;19126;47.472;7.850;2022-10-26T10:23:32;97040.47;;;22.01;79.63
32761;BME280;19126;47.472;7.850;2022-10-26T10:26:08;97038.88;;;21.88;81.25
32761;BME280;19126;47.472;7.850;2022-10-26T10:28:38;97040.19;;;22.14;85.72
32761;BME280;19126;47.472;7.850;2022-10-26T10:31:19;97042.28;;;22.12;81.93
32761;BME280;19126;47.472;7.850;2022-10-26T10:33:48;97045.03;;;21.88;79.54
32761;BME280;19126;47.472;7.850;2022-10-26T10:36:19;97044.81;;;21.90;80.11
32761;BME280;19126;47.472;7.850;2022-10-26T10:38:50;97045.03;;;21.88;83.16
32761;BME280;19126;47.472;7.850;2022-10-26T10:41:24;97056.03;;;22.04;81.77
32761;BME280;19126;47.472;7.850;2022-10-26T10:44:04;97055.81;;;22.05;82.76
32761;BME280;19126;47.472;7.850;2022-10-26T10:46:32;97058.03;;;21.96;75.73
32761;BME280;19126;47.472;7.850;2022-10-26T10:49:06;97060.50;;;21.86;82.00
32761;BME280;19126;47.472;7.850;2022-10-26T10:51:42;97059.56;;;21.92;79.02
32761;BME280;19126;47.472;7.850;2022-10-26T10:54:21;97060.97;;;21.95;81.80
32761;BME280;19126;47.472;7.850;2022-10-26T10:56:52;97056.59;;;22.18;83.50
32761;BME280;19126;47.472;7.850;2022-10-26T10:59:53;97058.69;;;22.16;85.59
32761;BME280;19126;47.472;7.850;2022-10-26T11:06:05;97062.91;;;22.12;92.38
32761;BME280;19126;47.472;7.850;2022-10-26T11:08:42;97063.00;;;22.05;95.41
32761;BME280;19126;47.472;7.850;2022-10-26T11:11:12;97062.00;;;21.94;91.76
32761;BME280;19126;47.472;7.850;2022-10-26T11:13:50;97062.72;;;21.89;95.45
32761;BME280;19126;47.472;7.850;2022-10-26T11:16:22;97065.16;;;21.91;97.88
32761;BME280;19126;47.472;7.850;2022-10-26T11:18:55;97058.44;;;21.76;95.17
32761;BME280;19126;47.472;7.850;2022-10-26T11:21:28;97058.31;;;21.83;93.70
32761;BME280;19126;47.472;7.850;2022-10-26T11:24:09;97063.66;;;21.83;94.24
32761;BME280;19126;47.472;7.850;2022-10-26T11:26:43;97065.84;;;21.86;90.60
32761;BME280;19126;47.472;7.850;2022-10-26T11:29:23;97073.75;;;21.93;90.23
32761;BME280;19126;47.472;7.850;2022-10-26T11:31:57;97075.28;;;21.89;87.98
32761;BME280;19126;47.472;7.850;2022-10-26T11:34:33;97064.69;;;21.94;89.43
32761;BME280;19126;47.472;7.850;2022-10-26T11:37:10;97064.31;;;22.02;92.01
32761;BME280;19126;47.472;7.850;2022-10-26T11:39:44;97067.69;;;21.98;83.18
32761;BME280;19126;47.472;7.850;2022-10-26T11:42:23;97067.94;;;21.96;84.31
32761;BME280;19126;47.472;7.850;2022-10-26T11:44:58;97066.09;;;21.85;82.72
32761;BME280;19126;47.472;7.850;2022-10-26T11:47:33;97066.09;;;21.85;84.96
32761;BME280;19126;47.472;7.850;2022-10-26T11:50:13;97065.41;;;21.77;84.46
32761;BME280;19126;47.472;7.850;2022-10-26T11:52:46;97068.31;;;21.76;88.58
32761;BME280;19126;47.472;7.850;2022-10-26T11:55:16;97072.63;;;21.77;87.78
32761;BME280;19126;47.472;7.850;2022-10-26T11:57:44;97071.47;;;21.73;87.26
32761;BME280;19126;47.472;7.850;2022-10-26T12:00:16;97080.31;;;21.73;89.52
32761;BME280;19126;47.472;7.850;2022-10-26T12:02:48;97078.56;;;21.67;89.00
32761;BME280;19126;47.472;7.850;2022-10-26T12:05:21;97081.47;;;21.54;86.07
32761;BME280;19126;47.472;7.850;2022-10-26T12:07:53;97091.44;;;21.58;87.97
32761;BME280;19126;47.472;7.850;2022-10-26T12:10:26;97084.81;;;21.49;89.47
32761;BME280;19126;47.472;7.850;2022-10-26T12:13:04;97083.44;;;21.46;89.36
32761;BME280;19126;47.472;7.850;2022-10-26T12:15:41;97081.34;;;21.48;92.80
32761;BME280;19126;47.472;7.850;2022-10-26T12:18:14;97087.97;;;21.46;91.80
32761;BME280;19126;47.472;7.850;2022-10-26T12:20:58;97088.91;;;21.28;90.81
32761;BME280;19126;47.472;7.850;2022-10-26T12:23:33;97090.50;;;21.17;93.05
32761;BME280;19126;47.472;7.850;2022-10-26T12:26:52;97091.53;;;21.16;92.89
32761;BME280;19126;47.472;7.850;2022-10-26T12:29:32;97094.09;;;21.11;92.11
32761;BME280;19126;47.472;7.850;2022-10-26T12:32:03;97096.41;;;21.07;94.15
32761;BME280;19126;47.472;7.850;2022-10-26T12:35:02;97092.78;;;20.89;94.46
32761;BME280;19126;47.472;7.850;2022-10-26T12:37:34;97089.38;;;20.82;89.57
32761;BME280;19126;47.472;7.850;2022-10-26T12:40:41;97093.19;;;20.74;84.80
32761;BME280;19126;47.472;7.850;2022-10-26T12:43:33;97087.75;;;20.81;84.86
32761;BME280;19126;47.472;7.850;2022-10-26T12:49:57;97091.09;;;20.76;89.23
32761;BME280;19126;47.472;7.850;2022-10-26T12:52:48;97090.00;;;20.65;85.72
32761;BME280;19126;47.472;7.850;2022-10-26T12:55:54;97088.69;;;20.56;87.02
32761;BME280;19126;47.472;7.850;2022-10-26T12:59:07;97096.81;;;20.49;95.96
32761;BME280;19126;47.472;7.850;2022-10-26T13:02:03;97101.63;;;20.41;99.51
32761;BME280;19126;47.472;7.850;2022-10-26T13:07:48;97113.50;;;20.45;100.00
32761;BME280;19126;47.472;7.850;2022-10-26T13:10:21;97113.72;;;20.43;100.00
32761;BME280;19126;47.472;7.850;2022-10-26T13:12:54;97113.50;;;20.45;98.47
32761;BME280;19126;47.472;7.850;2022-10-26T13:15:25;97113.31;;;20.58;99.31
32761;BME280;19126;47.472;7.850;2022-10-26T13:18:00;97109.88;;;20.70;95.71
32761;BME280;19126;47.472;7.850;2022-10-26T13:20:29;97110.06;;;20.87;92.97
32761;BME280;19126;47.472;7.850;2022-10-26T13:22:57;97114.38;;;20.88;91.88
32761;BME280;19126;47.472;7.850;2022-10-26T13:25:27;97115.63;;;20.85;92.85
32761;BME280;19126;47.472;7.850;2022-10-26T13:28:03;97117.59;;;20.78;94.38
32761;BME280;19126;47.472;7.850;2022-10-26T13:30:46;97116.66;;;20.54;98.02
32761;BME280;19126;47.472;7.850;2022-10-26T13:33:23;97115.53;;;20.31;98.48
32761;BME280;19126;47.472;7.850;2022-10-26T13:35:55;97114.19;;;20.22;98.00
32761;BME280;19126;47.472;7.850;2022-10-26T13:38:29;97114.28;;;20.15;100.00
32761;BME280;19126;47.472;7.850;2022-10-26T13:41:06;97120.16;;;20.05;100.00
32761;BME280;19126;47.472;7.850;2022-10-26T13:43:35;97111.56;;;20.03;99.87
32761;BME280;19126;47.472;7.850;2022-10-26T13:46:04;97112.78;;;20.00;100.00